Castle Airport
KMER : now visible

Airfield :











YOU CAN JOIN US ON...

 
LOGIN :

Register | Disclaimer

   EN    FR    IT 

 









Legend :    VFR   Marginal VFR   IFR   Intensive IFR   Very Intensive IFR
Visi :
Ceiling :
>= 8 km
>= 3000ft
5 to 8 km
1000 to 3000 ft
1500m to 5 km
500 to 1000 ft
800 to 1500m
200 to 500 ft
< 800m
< 200 ft
Symbols :   Thunderstorms  Fog  Heavy snow  Heavy precipitations  Wind > 20 kt






- Airport Elevation : 191 ft


KMER - Castle

CURRENT METAR :
  • 240755Z AUTO 29004KT 10SM CLR 12/09 A2997 RMK AO1

EXPIRED METARs :
  • 240735Z AUTO 32003KT 10SM CLR 12/09 A2997 RMK AO1
  • 240715Z AUTO 35004KT 7SM CLR 11/07 A2997 RMK AO1
  • 240655Z AUTO 00000KT 9SM CLR 11/06 A2997 RMK AO1
  • 240635Z AUTO 35004KT 7SM CLR 12/04 A2997 RMK AO1
  • 240615Z AUTO 00000KT 7SM CLR 12/04 A2997 RMK AO1
  • 240555Z AUTO 00000KT 7SM CLR 12/04 A2997 RMK AO1
  • 240535Z AUTO 00000KT 8SM CLR 13/04 A2997 RMK AO1
  • 240515Z AUTO 00000KT 9SM CLR 13/04 A2996 RMK AO1

TAF KMER
Valid from the 24 at 06:00 until the 25 at 06:00 UTC


240520Z 2406/2506 VRB03KT P6SM FEW250
KZOA FIR / North America



MET'MAP, your aeronautical weather chart ! - Copyright ORBIFLY December 2007 - Disclaimer

ORBIFLY MET'MAP TEAM :

Programming & Development : Alexandra Zaïnal
Concept & original design : Baudouin d'Aumeries
Assistance for programming : Marc-Olivier Méhu
Technical & hardware support : Manuel Goepfert

Contact : metmap@orbifly.com




SOURCES & CREDITS :

   NOAA       Earth
Advisory